Latest Weather Observations for Maitland Airport

IDN60801

Issued at 2:23 am EST Saturday 20 April 2024 (issued every 10 minutes, with the page automatically refreshed every 10 minutes)

About weather observations | Map of weather stations | Latest weather observations for NSW | Other Formats
Station Details ID: 061428 Name: MAITLAND AIRPORT AWS Lat: -32.70 Lon: 151.49 Height: 27.5 m
Data from the previous 72 hours. | See also: Recent months at Maitland Airport
Date/Time
EST
Temp
°C
App
Temp
°C
Dew
Point
°C
Rel
Hum
%
Delta-T
°C
Wind Press
QNH
hPa
Press
MSL
hPa
Rain since
9am
mm
Dir  Spd
km/h
Gust
km/h
Spd
kts
Gust
kts
20/02:00am 14.8 14.4 14.2 96 0.3 W 9 13 5 7 1020.9 1020.8 3.6
20/01:30am 15.0 14.7 14.4 96 0.3 WNW 9 13 5 7 1021.1 1021.0 3.2
20/01:00am 15.4 15.2 14.6 95 0.5 W 9 13 5 7 1021.0 1020.9 2.4
20/12:30am 15.6 15.3 14.5 93 0.6 W 9 11 5 6 1021.0 1020.9 1.6
20/12:00am 15.6 15.4 14.6 94 0.6 WSW 9 11 5 6 1020.9 1020.8 0.8
 
Date/Time
EST
Temp
°C
App
Temp
°C
Dew
Point
°C
Rel
Hum
%
Delta-T
°C
Wind Press
QNH
hPa
Press
MSL
hPa
Rain since
9am
mm
Dir  Spd
km/h
Gust
km/h
Spd
kts
Gust
kts
19/11:30pm 15.7 15.9 14.7 94 0.6 WSW 7 11 4 6 1020.7 1020.6 0.6
19/11:00pm 15.5 16.0 15.0 97 0.3 S 6 6 3 3 1020.8 1020.7 0.4
19/10:30pm 15.8 16.0 14.7 93 0.6 S 7 9 4 5 1020.9 1020.8 0.2
19/10:00pm 16.2 16.0 14.6 90 0.9 S 9 13 5 7 1021.1 1021.0 0.2
19/09:30pm 16.9 14.7 14.4 85 1.4 S 19 24 10 13 1021.0 1020.9 0.0
19/09:00pm 17.5 15.5 13.8 79 2.1 S 17 24 9 13 1020.9 1020.8 0.0
19/08:30pm 17.5 16.2 13.6 78 2.2 S 13 19 7 10 1020.6 1020.5 0.0
19/08:00pm 17.2 16.6 13.5 79 2.1 S 9 13 5 7 1020.2 1020.1 0.0
19/07:30pm 17.0 16.4 13.5 80 2.0 SSW 9 11 5 6 1019.9 1019.8 0.0
19/07:00pm 16.9 16.2 13.2 79 2.1 SSW 9 11 5 6 1019.5 1019.4 0.0
19/06:30pm 17.0 16.3 13.3 79 2.1 SSW 9 9 5 5 1019.2 1019.1 0.0
19/06:00pm 18.1 17.4 13.2 73 2.8 SSW 9 13 5 7 1018.8 1018.7 0.0
19/05:30pm 18.4 17.3 13.1 71 3.0 S 11 13 6 7 1018.3 1018.2 0.0
19/05:00pm 19.0 17.9 13.2 69 3.3 SSE 11 19 6 10 1018.0 1017.9 0.0
19/04:30pm 19.3 17.6 13.7 70 3.2 SSE 15 19 8 10 1017.7 1017.6 0.0
19/04:00pm 19.9 18.3 12.9 64 4.0 SSE 13 20 7 11 1017.3 1017.2 0.0
19/03:30pm 20.4 18.7 11.1 55 5.1 SSE 11 17 6 9 1016.8 1016.7 0.0
19/03:00pm 20.8 19.7 10.6 52 5.6 SW 7 13 4 7 1016.6 1016.5 0.0
19/02:30pm 21.0 19.9 10.5 51 5.7 NW 7 9 4 5 1016.3 1016.2 0.0
19/02:00pm 21.1 19.6 9.0 46 6.4 NW 7 9 4 5 1016.1 1016.0 0.0
19/01:30pm 21.5 21.3 10.6 50 6.0 W 2 9 1 5 1015.9 1015.8 0.0
19/01:00pm 21.7 19.6 9.9 47 6.4 SSE 11 13 6 7 1015.7 1015.6 0.0
19/12:30pm 21.5 19.3 7.7 41 7.2 SSW 9 17 5 9 1016.0 1015.9 0.0
19/12:00pm 21.4 20.3 12.0 55 5.3 WSW 9 15 5 8 1016.5 1016.4 0.0
19/11:30am 20.2 18.8 10.9 55 5.1 W 9 17 5 9 1016.7 1016.6 0.0
19/11:00am 19.8 18.0 11.0 57 4.8 WNW 11 17 6 9 1017.1 1017.0 0.0
19/10:30am 18.8 16.5 10.6 59 4.4 WNW 13 20 7 11 1017.2 1017.1 0.0
19/10:00am 17.7 15.1 10.6 63 3.8 WNW 15 22 8 12 1017.1 1017.0 0.0
19/09:30am 17.1 14.1 10.7 66 3.4 WNW 17 24 9 13 1017.1 1017.0 0.0
19/09:00am 16.0 12.9 10.3 69 3.0 WNW 17 24 9 13 1017.0 1016.9 9.0
19/08:30am 15.1 11.6 10.3 73 2.5 WNW 19 24 10 13 1017.0 1016.9 9.0
19/08:00am 14.3 11.8 11.1 81 1.7 WNW 15 22 8 12 1016.9 1016.8 9.0
19/07:30am 13.1 11.4 11.3 89 1.0 WNW 11 17 6 9 1016.6 1016.5 9.0
19/07:00am 12.0 12.0 11.2 95 0.4 WNW 2 9 1 5 1016.1 1016.0 9.0
19/06:30am 12.0 10.7 11.1 94 0.5 WNW 9 17 5 9 1015.9 1015.8 9.0
19/06:00am 12.5 10.9 11.4 93 0.6 WNW 11 15 6 8 1015.7 1015.6 9.0
19/05:30am 12.7 11.4 12.4 98 0.2 WNW 11 15 6 8 1015.3 1015.2 9.0
19/05:00am 12.9 11.2 12.3 96 0.3 W 13 17 7 9 1015.1 1015.0 9.0
19/04:30am 13.2 12.0 12.7 97 0.3 WNW 11 17 6 9 1015.0 1014.9 9.0
19/04:00am 13.5 12.4 13.2 98 0.2 WNW 11 13 6 7 1014.9 1014.8 9.0
19/03:30am 14.1 12.9 13.9 99 0.1 WNW 13 17 7 9 1014.7 1014.6 9.0
19/03:00am 14.5 14.6 14.5 100 0.0 NW 7 15 4 8 1014.6 1014.5 9.0
19/02:30am 14.0 14.9 14.0 100 0.0 NW 2 9 1 5 1014.7 1014.6 9.0
19/02:00am 13.4 13.7 13.4 100 0.0 NW 4 9 2 5 1015.0 1014.9 9.0
19/01:30am 12.5 12.9 12.5 100 0.0 NW 2 9 1 5 1015.4 1015.3 9.0
19/01:20am 11.8 12.4 11.8 100 0.0 CALM 0 0 0 0 1015.3 1015.2 9.0
19/01:00am 12.1 12.4 12.1 100 0.0 NW 2 6 1 3 1015.4 1015.3 9.0
19/12:30am 12.2 11.7 12.2 100 0.0 NW 6 9 3 5 1015.3 1015.2 9.0
19/12:00am 12.6 13.4 12.6 100 0.0 CALM 0 0 0 0 1015.5 1015.4 9.0
 
Date/Time
EST
Temp
°C
App
Temp
°C
Dew
Point
°C
Rel
Hum
%
Delta-T
°C
Wind Press
QNH
hPa
Press
MSL
hPa
Rain since
9am
mm
Dir  Spd
km/h
Gust
km/h
Spd
kts
Gust
kts
18/11:30pm 12.6 12.1 12.6 100 0.0 WNW 7 11 4 6 1015.5 1015.4 9.0
18/11:26pm 12.8 12.3 12.8 100 0.0 SW 7 11 4 6 1015.4 1015.3 9.0
18/11:09pm 12.8 13.7 12.8 100 0.0 CALM 0 0 0 0 1015.5 1015.4 9.0
18/11:00pm 13.2 14.2 13.2 100 0.0 CALM 0 0 0 0 1015.5 1015.4 9.0
18/10:57pm 13.3 14.3 13.3 100 0.0 CALM 0 0 0 0 1015.6 1015.5 9.0
18/10:45pm 13.0 13.9 13.0 100 0.0 CALM 0 0 0 0 1015.6 1015.5 9.0
18/10:30pm 13.2 13.4 13.2 100 0.0 SSW 4 7 2 4 1015.6 1015.5 9.0
18/10:18pm 13.5 14.6 13.5 100 0.0 CALM 0 4 0 2 1015.7 1015.6 9.0
18/10:00pm 12.9 13.8 12.9 100 0.0 CALM 0 0 0 0 1015.8 1015.7 9.0
18/09:59pm 12.9 13.8 12.9 100 0.0 CALM 0 0 0 0 1015.8 1015.7 9.0
18/09:50pm 12.9 13.8 12.9 100 0.0 CALM 0 0 0 0 1015.8 1015.7 9.0
18/09:38pm 12.8 13.7 12.8 100 0.0 CALM 0 0 0 0 1015.8 1015.7 9.0
18/09:30pm 13.3 14.3 13.3 100 0.0 CALM 0 0 0 0 1015.8 1015.7 9.0
18/09:28pm 13.3 14.3 13.3 100 0.0 CALM 0 0 0 0 1015.8 1015.7 9.0
18/09:00pm 13.4 13.3 13.4 100 0.0 SSW 6 7 3 4 1015.5 1015.4 9.0
18/08:30pm 14.2 15.5 14.2 100 0.0 CALM 0 7 0 4 1015.3 1015.2 9.0
18/08:00pm 14.5 15.9 14.5 100 0.0 CALM 0 0 0 0 1015.0 1014.9 9.0
18/07:30pm 14.7 15.1 14.7 100 0.0 SSW 6 9 3 5 1014.9 1014.8 9.0
18/07:00pm 14.1 14.1 14.1 100 0.0 S 7 17 4 9 1014.7 1014.6 9.0
18/06:30pm 14.5 15.9 14.3 99 0.1 CALM 0 0 0 0 1014.0 1013.9 9.0
18/06:00pm 15.0 16.0 14.4 96 0.3 S 2 6 1 3 1013.8 1013.7 9.0
18/05:30pm 16.0 15.7 14.4 90 0.9 NW 9 13 5 7 1013.5 1013.4 9.0
18/05:00pm 16.8 17.8 14.4 86 1.4 NW 2 9 1 5 1013.5 1013.4 9.0
18/04:50pm 16.6 16.2 15.1 91 0.9 NNW 11 19 6 10 1013.7 1013.6 9.0
18/04:30pm 16.9 15.1 14.4 85 1.4 NNW 17 39 9 21 1013.9 1013.8 8.0
18/04:01pm 18.4 19.3 16.0 86 1.4 E 6 11 3 6 1013.3 1013.2 5.4
18/04:00pm 18.4 19.4 16.4 88 1.2 E 6 11 3 6 1013.4 1013.3 5.4
18/03:34pm 18.8 20.0 15.9 83 1.7 ENE 4 9 2 5 1014.0 1013.9 5.2
18/03:30pm 18.8 20.1 16.2 85 1.6 NE 4 9 2 5 1014.0 1013.9 5.2
18/03:24pm 18.5 19.3 16.3 87 1.3 NNE 7 13 4 7 1013.8 1013.7 5.2
18/03:00pm 17.3 14.7 13.2 77 2.3 WSW 19 26 10 14 1014.5 1014.4 3.2
18/02:57pm 18.0 15.3 13.5 75 2.6 WSW 20 32 11 17 1014.4 1014.3 2.4
18/02:56pm 18.3 15.7 13.8 75 2.6 WSW 20 32 11 17 1014.4 1014.3 2.2
18/02:39pm 23.4 23.0 16.2 64 4.4 WNW 13 20 7 11 1013.9 1013.8 0.0
18/02:30pm 23.7 22.9 16.0 62 4.7 NW 15 20 8 11 1013.9 1013.8 0.0
18/02:00pm 23.1 22.6 15.9 64 4.4 NW 13 17 7 9 1014.0 1013.9 0.0
18/01:30pm 23.4 22.8 15.7 62 4.6 WNW 13 20 7 11 1014.2 1014.1 0.0
18/01:00pm 23.5 22.7 16.1 63 4.5 WNW 15 22 8 12 1014.3 1014.2 0.0
18/12:30pm 23.7 22.3 17.0 66 4.1 NW 20 28 11 15 1015.0 1014.9 0.0
18/12:00pm 23.1 21.3 15.9 64 4.3 NW 20 30 11 16 1015.7 1015.6 0.0
18/11:30am 23.3 21.1 15.9 63 4.5 WNW 22 32 12 17 1016.5 1016.4 0.0
18/11:00am 23.0 21.7 16.8 68 3.8 WNW 19 24 10 13 1017.3 1017.2 0.0
18/10:30am 20.8 19.9 16.8 78 2.4 W 17 22 9 12 1017.8 1017.7 0.0
18/10:00am 20.6 20.4 16.8 79 2.3 WNW 13 20 7 11 1018.2 1018.1 0.0
18/09:30am 19.5 19.6 16.5 83 1.8 NW 11 17 6 9 1018.6 1018.5 0.0
18/09:00am 17.7 17.5 16.7 94 0.6 WNW 13 17 7 9 1018.9 1018.8 3.6
18/08:30am 17.0 16.8 16.8 99 0.1 W 13 17 7 9 1018.9 1018.8 3.6
18/08:00am 15.7 16.8 15.7 100 0.0 W 4 11 2 6 1018.9 1018.8 3.6
18/07:30am 14.7 14.9 14.7 100 0.0 W 7 13 4 7 1018.6 1018.5 3.6
18/07:08am 14.6 16.1 14.6 100 0.0 CALM 0 9 0 5 1018.3 1018.2 3.6
18/07:00am 14.3 14.9 14.3 100 0.0 S 4 7 2 4 1018.2 1018.1 3.6
18/06:52am 13.5 13.5 13.5 100 0.0 WSW 6 7 3 4 1018.1 1018.0 3.6
18/06:42am 12.6 12.7 12.6 100 0.0 WSW 4 6 2 3 1018.2 1018.1 3.6
18/06:30am 12.6 12.7 12.6 100 0.0 WSW 4 6 2 3 1018.1 1018.0 3.4
18/06:20am 12.9 12.7 12.9 100 0.0 WSW 6 7 3 4 1017.9 1017.8 3.4
18/06:00am 13.0 12.8 13.0 100 0.0 WSW 6 9 3 5 1017.9 1017.8 3.4
18/05:51am 12.8 13.3 12.8 100 0.0 WSW 2 9 1 5 1017.9 1017.8 3.4
18/05:35am 13.0 13.6 13.0 100 0.0 WSW 2 7 1 4 1018.0 1017.9 3.4
18/05:30am 13.4 13.3 13.4 100 0.0 WSW 6 9 3 5 1018.0 1017.9 3.4
18/05:08am 13.4 14.5 13.4 100 0.0 CALM 0 0 0 0 1018.0 1017.9 3.4
18/05:00am 13.1 13.3 13.1 100 0.0 WSW 4 9 2 5 1017.9 1017.8 3.4
18/04:48am 12.8 13.3 12.8 100 0.0 WSW 2 9 1 5 1017.9 1017.8 3.4
18/04:30am 13.1 14.1 13.1 100 0.0 CALM 0 0 0 0 1017.8 1017.7 3.4
18/04:25am 13.3 14.3 13.3 100 0.0 CALM 0 0 0 0 1017.7 1017.6 3.4
18/04:21am 13.5 14.6 13.5 100 0.0 CALM 0 0 0 0 1017.7 1017.6 3.4
18/04:11am 13.3 14.3 13.3 100 0.0 CALM 0 0 0 0 1017.9 1017.8 3.4
18/04:05am 13.7 14.9 13.7 100 0.0 CALM 0 2 0 1 1018.0 1017.9 3.4
18/04:00am 13.8 14.6 13.8 100 0.0 WSW 2 7 1 4 1018.1 1018.0 3.4
18/03:59am 13.7 14.1 13.7 100 0.0 WSW 4 7 2 4 1018.1 1018.0 3.4
18/03:53am 14.2 14.2 14.2 100 0.0 WSW 7 9 4 5 1018.1 1018.0 3.4
18/03:46am 13.9 13.8 13.9 100 0.0 WSW 7 9 4 5 1018.2 1018.1 3.4
18/03:30am 13.7 14.9 13.7 100 0.0 CALM 0 0 0 0 1018.2 1018.1 3.4
18/03:23am 14.1 15.4 14.1 100 0.0 CALM 0 0 0 0 1018.2 1018.1 3.4
18/03:09am 14.0 15.3 14.0 100 0.0 CALM 0 0 0 0 1018.3 1018.2 3.4
18/03:00am 14.4 15.8 14.4 100 0.0 CALM 0 0 0 0 1018.3 1018.2 3.4
18/02:51am 14.4 15.8 14.4 100 0.0 CALM 0 0 0 0 1018.3 1018.2 3.4
18/02:48am 14.4 15.4 14.4 100 0.0 WSW 2 6 1 3 1018.3 1018.2 3.4
18/02:32am 14.8 15.2 14.8 100 0.0 WSW 6 7 3 4 1018.3 1018.2 3.4
18/02:30am 14.8 15.2 14.8 100 0.0 WSW 6 7 3 4 1018.3 1018.2 3.4
18/02:00am 15.8 16.4 15.8 100 0.0 WSW 7 11 4 6 1018.4 1018.3 3.4
18/01:30am 15.8 15.9 15.6 99 0.1 SSW 9 13 5 7 1018.7 1018.6 3.4
18/01:00am 16.5 16.5 16.3 99 0.1 SW 11 15 6 8 1018.9 1018.8 3.4
18/12:30am 17.1 17.0 16.9 99 0.1 NNW 13 20 7 11 1019.0 1018.9 3.4
18/12:00am 17.2 17.5 16.9 98 0.2 NNW 11 15 6 8 1019.6 1019.5 3.2
 
Date/Time
EST
Temp
°C
App
Temp
°C
Dew
Point
°C
Rel
Hum
%
Delta-T
°C
Wind Press
QNH
hPa
Press
MSL
hPa
Rain since
9am
mm
Dir  Spd
km/h
Gust
km/h
Spd
kts
Gust
kts
17/11:30pm 17.7 18.3 16.9 95 0.5 NW 9 13 5 7 1020.7 1020.6 2.0
17/11:00pm 18.5 18.1 18.0 97 0.3 WNW 17 28 9 15 1021.3 1021.2 1.2
17/10:59pm 18.6 18.2 18.1 97 0.3 WNW 17 24 9 13 1021.4 1021.3 1.2
17/10:49pm 18.8 19.5 18.0 95 0.5 WSW 11 13 6 7 1021.2 1021.1 0.8
17/10:30pm 18.9 19.9 17.7 93 0.7 SSW 9 11 5 6 1021.1 1021.0 0.2
17/10:00pm 19.0 19.5 17.5 91 0.9 SSW 11 13 6 7 1021.2 1021.1 0.0
17/09:30pm 19.4 22.0 17.4 88 1.2 CALM 0 0 0 0 1021.0 1020.9 0.0
17/09:00pm 19.7 21.0 17.5 87 1.3 SE 7 9 4 5 1020.9 1020.8 0.0
17/08:30pm 19.5 20.7 17.3 87 1.3 SE 7 9 4 5 1021.1 1021.0 0.0
17/08:00pm 19.8 20.9 17.2 85 1.6 SE 7 9 4 5 1020.9 1020.8 0.0
17/07:30pm 20.8 21.3 17.4 81 2.1 SE 11 13 6 7 1020.7 1020.6 0.0
17/07:00pm 21.0 21.8 17.2 79 2.3 ESE 9 13 5 7 1020.5 1020.4 0.0
17/06:30pm 21.1 21.8 17.1 78 2.4 SSE 9 15 5 8 1020.7 1020.6 0.0
17/06:00pm 21.5 22.0 17.5 78 2.5 SE 11 13 6 7 1020.2 1020.1 0.0
17/05:30pm 22.0 22.8 17.4 75 2.8 SE 9 13 5 7 1020.2 1020.1 0.0
17/05:00pm 22.6 23.0 17.3 72 3.3 SE 11 15 6 8 1020.1 1020.0 0.0
17/04:30pm 22.7 22.2 16.9 70 3.6 SE 15 24 8 13 1019.8 1019.7 0.0
17/04:00pm 24.2 23.1 17.4 65 4.2 E 19 24 10 13 1019.6 1019.5 0.0
17/03:30pm 24.0 23.0 17.5 67 4.0 ESE 19 24 10 13 1019.8 1019.7 0.0
17/03:00pm 23.9 22.8 17.2 66 4.1 ESE 19 26 10 14 1019.7 1019.6 0.0
17/02:30pm 26.0 25.8 18.4 63 4.8 E 17 24 9 13 1019.8 1019.7 0.0
17/02:00pm 25.3 25.6 18.0 64 4.6 E 13 20 7 11 1020.0 1019.9 0.0
17/01:30pm 24.5 24.5 18.0 67 4.1 E 15 20 8 11 1020.2 1020.1 0.0
17/01:00pm 24.8 24.4 18.0 66 4.3 E 17 24 9 13 1020.6 1020.5 0.0
17/12:30pm 25.6 26.6 19.5 69 3.9 ESE 13 19 7 10 1021.2 1021.1 0.0
17/12:00pm 24.0 24.1 17.5 67 4.0 E 13 17 7 9 1022.1 1022.0 0.0
17/11:30am 24.4 24.8 18.1 68 4.0 E 13 24 7 13 1022.6 1022.5 0.0
17/11:00am 24.4 23.9 17.9 67 4.1 E 17 28 9 15 1023.1 1023.0 0.0
17/10:30am 24.2 25.5 19.3 74 3.1 E 11 17 6 9 1023.5 1023.5 0.0
17/10:00am 22.3 23.8 18.1 77 2.6 SE 7 13 4 7 1023.8 1023.8 0.0
17/09:30am 21.4 23.9 18.2 82 2.0 WSW 2 9 1 5 1024.1 1024.1 0.0
17/09:00am 19.5 22.4 18.2 92 0.8 CALM 0 0 0 0 1024.2 1024.2 0.0
17/08:30am 18.1 19.8 18.1 100 0.0 W 6 7 3 4 1024.3 1024.3 0.0
17/08:00am 16.7 18.6 16.7 100 0.0 SW 2 9 1 5 1024.1 1024.1 0.0
17/07:30am 15.7 17.2 15.7 100 0.0 SW 2 6 1 3 1024.0 1024.0 0.0
17/07:00am 14.4 15.8 14.4 100 0.0 CALM 0 0 0 0 1023.5 1023.5 0.0
17/06:57am 14.3 15.7 14.3 100 0.0 CALM 0 0 0 0 1023.4 1023.4 0.0
17/06:42am 13.3 14.3 13.3 100 0.0 CALM 0 0 0 0 1023.2 1023.2 0.0
17/06:39am 13.2 14.2 13.2 100 0.0 CALM 0 0 0 0 1023.2 1023.2 0.0
17/06:30am 13.0 13.9 13.0 100 0.0 CALM 0 0 0 0 1023.1 1023.0 0.0
17/06:00am 13.3 14.3 13.3 100 0.0 CALM 0 0 0 0 1022.8 1022.7 0.0
17/05:42am 12.5 13.3 12.5 100 0.0 CALM 0 0 0 0 1022.7 1022.6 0.0
17/05:34am 12.9 13.8 12.9 100 0.0 CALM 0 0 0 0 1022.6 1022.5 0.0
17/05:30am 12.6 13.4 12.6 100 0.0 CALM 0 0 0 0 1022.6 1022.5 0.0
17/05:27am 12.6 13.4 12.6 100 0.0 CALM 0 0 0 0 1022.5 1022.4 0.0
17/05:17am 12.6 13.4 12.6 100 0.0 CALM 0 0 0 0 1022.5 1022.4 0.0
17/05:07am 12.5 13.3 12.5 100 0.0 CALM 0 0 0 0 1022.5 1022.4 0.0
17/05:00am 12.4 13.2 12.4 100 0.0 CALM 0 0 0 0 1022.5 1022.4 0.0
17/04:30am 14.2 15.5 14.2 100 0.0 CALM 0 0 0 0 1022.4 1022.3 0.0
17/04:14am 13.0 13.9 13.0 100 0.0 CALM 0 0 0 0 1022.3 1022.2 0.0
17/04:05am 13.0 13.9 13.0 100 0.0 CALM 0 0 0 0 1022.3 1022.2 0.0
17/04:00am 13.2 14.2 13.2 100 0.0 CALM 0 0 0 0 1022.2 1022.1 0.0
17/03:39am 14.5 15.9 14.5 100 0.0 CALM 0 0 0 0 1022.1 1022.0 0.0
17/03:35am 14.5 15.9 14.5 100 0.0 CALM 0 0 0 0 1022.1 1022.0 0.0
17/03:30am 14.3 15.7 14.3 100 0.0 CALM 0 0 0 0 1022.1 1022.0 0.0
17/03:00am 13.4 14.5 13.4 100 0.0 CALM 0 0 0 0 1022.1 1022.0 0.0
17/02:35am 13.5 14.6 13.5 100 0.0 CALM 0 0 0 0 1022.1 1022.0 0.0
17/02:34am 13.6 14.7 13.6 100 0.0 CALM 0 0 0 0 1022.1 1022.0 0.0
17/02:30am 13.8 15.0 13.8 100 0.0 CALM 0 0 0 0 1022.1 1022.0 0.0
17/02:22am 13.8 15.0 13.8 100 0.0 CALM 0 0 0 0 1022.1 1022.0 0.0

Other formats

Comma delimited format used in spreadsheet applications
http://www.bom.gov.au/fwo/IDN60801/IDN60801.94650.axf

JavaScript Object Notation format (JSON) in row-major order
http://www.bom.gov.au/fwo/IDN60801/IDN60801.94650.json

Data quality

Most of these data are generated automatically and are frequently updated. Quality checks on data are not normally performed. It is possible for incorrect values to appear. Refer to information at About Latest Weather Observations and please check the disclaimer before using these data.